Catàleg de serveis del Meteocat
Campanya meteocatpedra

Dades de l'estació automàtica Rellinars

?
?
Resum diari 23:00 TU
Dades diàries de l'estació meteorològica
Temperatura mitjana 22.8 °C
Temperatura màxima 30.0 °C 12:13 TU
Temperatura mínima 17.8 °C 3:37 TU
Humitat relativa mitjana 67%
Precipitació acumulada 0.0 mm
Ratxa màxima del vent (2 m) 27.7 km/h - 118º 16:41 TU
Irradiació solar global 28.0 MJ/m2

El tram horari està expressat en Temps Universal (TU). Cal sumar una hora en horari d'hivern i dues en horari d'estiu per passar a l'hora oficial.

Rellinars

Metadades estació meteorol´gica
Municipi Rellinars
Comarca Vallès Occidental
Altitud 421 m
Data alta 18.02.1998
Estat actual Operativa
Dades de període
Període
TU
TM
°C
TX
°C
TN
°C
HRM
%
PPT
mm
VVM (2 m)
km/h
DVM (2 m)
graus
VVX (2 m)
km/h
RS
W/m2
00:00 - 00:30 20.4 20.6 20.2 84 0.0 4.0 91 9.0 0
00:30 - 01:00 20.1 20.4 19.8 84 0.0 3.2 98 7.6 0
01:00 - 01:30 19.7 20.2 19.1 86 0.0 2.9 109 8.3 0
01:30 - 02:00 18.9 19.1 18.7 89 0.0 3.6 74 8.3 0
02:00 - 02:30 18.7 18.9 18.5 90 0.0 3.6 66 8.6 0
02:30 - 03:00 18.8 18.9 18.6 90 0.0 0.0 76 5.4 0
03:00 - 03:30 18.4 18.7 18.0 91 0.0 0.4 39 3.2 0
03:30 - 04:00 18.0 18.2 17.8 92 0.0 0.4 30 3.2 0
04:00 - 04:30 18.1 18.2 17.9 90 0.0 0.4 21 7.2 0
04:30 - 05:00 18.5 18.8 17.9 82 0.0 0.4 25 2.9 8
05:00 - 05:30 18.9 18.9 18.8 75 0.0 0.4 37 2.5 25
05:30 - 06:00 19.3 19.8 18.9 70 0.0 0.0 1 1.8 86
06:00 - 06:30 19.6 19.8 19.4 69 0.0 0.4 2 4.0 105
06:30 - 07:00 20.3 21.3 19.7 64 0.0 0.7 328 7.2 219
07:00 - 07:30 20.8 22.0 20.3 61 0.0 1.8 323 5.8 300
07:30 - 08:00 22.6 22.9 22.0 54 0.0 2.5 286 7.6 545
08:00 - 08:30 23.4 24.0 22.9 50 0.0 2.5 294 7.6 633
08:30 - 09:00 24.4 25.1 23.8 50 0.0 2.2 294 7.6 674
09:00 - 09:30 25.2 25.7 24.7 50 0.0 2.5 232 8.6 705
09:30 - 10:00 26.0 26.6 25.2 57 0.0 2.9 155 9.0 734
10:00 - 10:30 25.6 26.6 24.3 60 0.0 3.6 151 12.6 791
10:30 - 11:00 26.6 27.7 25.4 53 0.0 4.7 161 13.0 740
11:00 - 11:30 27.1 28.4 25.7 50 0.0 6.1 181 19.1 912
11:30 - 12:00 28.3 29.6 26.9 43 0.0 4.3 186 17.6 933
12:00 - 12:30 28.8 30.0 27.6 42 0.0 4.0 163 15.8 918
12:30 - 13:00 28.8 29.7 28.2 44 0.0 5.0 145 15.8 945
13:00 - 13:30 28.3 29.0 27.4 46 0.0 6.8 143 19.1 910
13:30 - 14:00 27.9 29.4 27.0 47 0.0 9.4 173 24.8 870
14:00 - 14:30 27.8 28.3 27.3 46 0.0 6.8 166 15.1 814
14:30 - 15:00 27.9 28.5 27.5 45 0.0 7.6 147 20.9 749
15:00 - 15:30 27.7 28.1 27.3 49 0.0 7.9 146 19.8 675
15:30 - 16:00 27.3 28.1 26.2 53 0.0 7.9 137 22.3 599
16:00 - 16:30 25.8 26.5 25.1 59 0.0 9.4 115 27.0 501
16:30 - 17:00 25.0 25.8 24.4 61 0.0 8.6 113 27.7 404
17:00 - 17:30 24.1 24.7 23.7 63 0.0 9.4 119 27.7 305
17:30 - 18:00 23.6 23.7 23.4 64 0.0 8.6 140 23.4 218
18:00 - 18:30 23.5 23.8 23.2 64 0.0 6.5 148 20.2 138
18:30 - 19:00 22.9 23.4 22.6 66 0.0 7.2 139 16.9 65
19:00 - 19:30 22.2 22.5 22.0 69 0.0 5.0 150 14.8 12
19:30 - 20:00 21.7 22.0 21.4 72 0.0 4.0 157 10.8 1
20:00 - 20:30 21.1 21.4 20.9 75 0.0 4.0 157 11.2 0
20:30 - 21:00 20.7 20.9 20.6 77 0.0 4.0 163 10.4 0
21:00 - 21:30 20.6 20.7 20.4 79 0.0 4.7 119 11.2 0
21:30 - 22:00 20.4 20.5 20.2 81 0.0 4.0 116 9.0 0
22:00 - 22:30 20.1 20.3 19.9 82 0.0 2.2 111 5.8 0
22:30 - 23:00 19.6 19.9 19.0 85 0.0 2.5 96 5.0 0
23:00 - 23:30 18.9 19.1 18.7 87 0.0 3.2 79 7.6 0

Les dades en taronja només han passat un control de qualitat automàtic. Resta pendent la seva validació definitiva.